sensor_id;sensor_type;location;lat;lon;timestamp;temperature;humidity
24232;DHT22;12364;47.810;8.810;2024-02-23T04:46:32;6.50;99.90
24232;DHT22;12364;47.810;8.810;2024-02-23T04:49:01;6.50;99.90
24232;DHT22;12364;47.810;8.810;2024-02-23T04:51:28;6.50;99.90
24232;DHT22;12364;47.810;8.810;2024-02-23T04:53:55;6.70;99.90
24232;DHT22;12364;47.810;8.810;2024-02-23T04:56:22;6.70;99.90
24232;DHT22;12364;47.810;8.810;2024-02-23T04:58:50;6.70;99.90
24232;DHT22;12364;47.810;8.810;2024-02-23T05:01:18;6.60;99.90
24232;DHT22;12364;47.810;8.810;2024-02-23T05:03:45;6.30;99.90
24232;DHT22;12364;47.810;8.810;2024-02-23T05:06:12;6.30;99.90
24232;DHT22;12364;47.810;8.810;2024-02-23T05:08:40;6.40;99.90
24232;DHT22;12364;47.810;8.810;2024-02-23T05:11:07;6.30;99.90
24232;DHT22;12364;47.810;8.810;2024-02-23T05:13:35;6.40;99.90
24232;DHT22;12364;47.810;8.810;2024-02-23T05:16:02;6.50;99.90
24232;DHT22;12364;47.810;8.810;2024-02-23T05:18:29;6.50;99.90
24232;DHT22;12364;47.810;8.810;2024-02-23T05:20:56;6.60;99.90
24232;DHT22;12364;47.810;8.810;2024-02-23T05:23:23;6.60;99.90
24232;DHT22;12364;47.810;8.810;2024-02-23T05:25:50;6.40;99.90
24232;DHT22;12364;47.810;8.810;2024-02-23T05:28:17;6.50;99.90
24232;DHT22;12364;47.810;8.810;2024-02-23T05:30:44;6.50;99.90
24232;DHT22;12364;47.810;8.810;2024-02-23T05:33:11;6.30;99.90
24232;DHT22;12364;47.810;8.810;2024-02-23T05:35:38;6.40;99.90
24232;DHT22;12364;47.810;8.810;2024-02-23T05:38:05;6.50;99.90
24232;DHT22;12364;47.810;8.810;2024-02-23T05:40:33;6.70;99.90
24232;DHT22;12364;47.810;8.810;2024-02-23T05:43:00;6.80;99.90
24232;DHT22;12364;47.810;8.810;2024-02-23T05:45:27;7.00;99.90
24232;DHT22;12364;47.810;8.810;2024-02-23T05:47:54;7.00;99.90
24232;DHT22;12364;47.810;8.810;2024-02-23T05:50:21;6.70;99.90
24232;DHT22;12364;47.810;8.810;2024-02-23T05:52:49;6.50;99.90
24232;DHT22;12364;47.810;8.810;2024-02-23T05:55:16;6.60;99.90
24232;DHT22;12364;47.810;8.810;2024-02-23T05:57:43;6.50;99.90
24232;DHT22;12364;47.810;8.810;2024-02-23T06:00:10;6.50;99.90
24232;DHT22;12364;47.810;8.810;2024-02-23T06:02:40;6.30;99.90
24232;DHT22;12364;47.810;8.810;2024-02-23T06:05:07;6.20;99.90
24232;DHT22;12364;47.810;8.810;2024-02-23T06:07:35;6.20;99.90
24232;DHT22;12364;47.810;8.810;2024-02-23T06:10:04;6.20;99.90
24232;DHT22;12364;47.810;8.810;2024-02-23T06:12:31;5.90;99.90
24232;DHT22;12364;47.810;8.810;2024-02-23T06:14:58;5.60;99.90
24232;DHT22;12364;47.810;8.810;2024-02-23T06:17:25;5.40;99.90
24232;DHT22;12364;47.810;8.810;2024-02-23T06:19:52;5.40;99.90
24232;DHT22;12364;47.810;8.810;2024-02-23T06:22:20;5.50;99.90
24232;DHT22;12364;47.810;8.810;2024-02-23T06:24:51;5.30;99.90
24232;DHT22;12364;47.810;8.810;2024-02-23T06:27:19;5.30;99.90
24232;DHT22;12364;47.810;8.810;2024-02-23T06:29:46;5.40;99.90
24232;DHT22;12364;47.810;8.810;2024-02-23T06:32:13;5.40;99.90
24232;DHT22;12364;47.810;8.810;2024-02-23T06:34:40;5.60;99.90
24232;DHT22;12364;47.810;8.810;2024-02-23T06:37:07;5.40;99.90
24232;DHT22;12364;47.810;8.810;2024-02-23T06:39:34;5.40;99.90
24232;DHT22;12364;47.810;8.810;2024-02-23T06:42:02;5.40;99.90
24232;DHT22;12364;47.810;8.810;2024-02-23T06:44:31;5.30;99.90
24232;DHT22;12364;47.810;8.810;2024-02-23T06:46:58;5.50;99.90
24232;DHT22;12364;47.810;8.810;2024-02-23T06:49:25;5.20;99.90
24232;DHT22;12364;47.810;8.810;2024-02-23T06:51:53;5.10;99.90
24232;DHT22;12364;47.810;8.810;2024-02-23T06:54:20;5.10;99.90
24232;DHT22;12364;47.810;8.810;2024-02-23T06:56:47;5.00;99.90
24232;DHT22;12364;47.810;8.810;2024-02-23T06:59:14;5.10;99.90
24232;DHT22;12364;47.810;8.810;2024-02-23T07:01:47;5.00;99.90
24232;DHT22;12364;47.810;8.810;2024-02-23T07:04:14;5.00;99.90
24232;DHT22;12364;47.810;8.810;2024-02-23T07:06:41;5.10;99.90
24232;DHT22;12364;47.810;8.810;2024-02-23T07:09:09;4.80;99.90
24232;DHT22;12364;47.810;8.810;2024-02-23T07:11:35;5.00;99.90
24232;DHT22;12364;47.810;8.810;2024-02-23T07:14:03;5.00;99.90
24232;DHT22;12364;47.810;8.810;2024-02-23T07:16:30;4.80;99.90
24232;DHT22;12364;47.810;8.810;2024-02-23T07:18:57;4.70;99.90
24232;DHT22;12364;47.810;8.810;2024-02-23T07:21:24;4.60;99.90
24232;DHT22;12364;47.810;8.810;2024-02-23T07:23:52;4.60;99.90
24232;DHT22;12364;47.810;8.810;2024-02-23T07:26:19;4.70;99.90
24232;DHT22;12364;47.810;8.810;2024-02-23T07:28:49;4.60;99.90
24232;DHT22;12364;47.810;8.810;2024-02-23T07:31:16;4.50;99.90
24232;DHT22;12364;47.810;8.810;2024-02-23T07:33:43;4.60;99.90
24232;DHT22;12364;47.810;8.810;2024-02-23T07:36:13;4.60;99.90
24232;DHT22;12364;47.810;8.810;2024-02-23T07:38:41;4.50;99.90
24232;DHT22;12364;47.810;8.810;2024-02-23T07:41:08;4.80;99.90
24232;DHT22;12364;47.810;8.810;2024-02-23T07:43:35;4.80;99.90
24232;DHT22;12364;47.810;8.810;2024-02-23T07:46:02;5.00;99.90
24232;DHT22;12364;47.810;8.810;2024-02-23T07:48:31;5.20;99.90
24232;DHT22;12364;47.810;8.810;2024-02-23T07:50:58;5.50;99.90
24232;DHT22;12364;47.810;8.810;2024-02-23T07:53:25;5.60;99.90
24232;DHT22;12364;47.810;8.810;2024-02-23T07:55:52;5.70;99.90
24232;DHT22;12364;47.810;8.810;2024-02-23T07:58:19;5.70;99.90
24232;DHT22;12364;47.810;8.810;2024-02-23T08:00:48;5.70;99.90
24232;DHT22;12364;47.810;8.810;2024-02-23T08:03:15;5.80;99.90
24232;DHT22;12364;47.810;8.810;2024-02-23T08:05:42;5.70;99.90
24232;DHT22;12364;47.810;8.810;2024-02-23T08:08:09;5.80;99.90
24232;DHT22;12364;47.810;8.810;2024-02-23T08:10:36;5.70;99.90
24232;DHT22;12364;47.810;8.810;2024-02-23T08:13:03;5.70;99.90
24232;DHT22;12364;47.810;8.810;2024-02-23T08:15:30;5.90;99.90
24232;DHT22;12364;47.810;8.810;2024-02-23T08:17:57;5.90;99.90
24232;DHT22;12364;47.810;8.810;2024-02-23T08:20:24;6.00;99.90
24232;DHT22;12364;47.810;8.810;2024-02-23T08:22:51;5.90;99.90
24232;DHT22;12364;47.810;8.810;2024-02-23T08:25:18;6.10;99.90
24232;DHT22;12364;47.810;8.810;2024-02-23T08:27:45;6.10;99.90
24232;DHT22;12364;47.810;8.810;2024-02-23T08:30:13;5.90;99.90
24232;DHT22;12364;47.810;8.810;2024-02-23T08:32:40;5.90;99.90
24232;DHT22;12364;47.810;8.810;2024-02-23T08:35:07;6.00;99.90
24232;DHT22;12364;47.810;8.810;2024-02-23T08:37:35;6.00;99.90
24232;DHT22;12364;47.810;8.810;2024-02-23T08:40:02;5.80;99.90
24232;DHT22;12364;47.810;8.810;2024-02-23T08:42:30;6.00;99.90
24232;DHT22;12364;47.810;8.810;2024-02-23T08:44:57;5.90;99.90
24232;DHT22;12364;47.810;8.810;2024-02-23T08:47:24;6.00;99.90
24232;DHT22;12364;47.810;8.810;2024-02-23T08:49:51;6.10;99.90
24232;DHT22;12364;47.810;8.810;2024-02-23T08:52:18;5.70;99.90
24232;DHT22;12364;47.810;8.810;2024-02-23T08:54:45;5.60;99.90
24232;DHT22;12364;47.810;8.810;2024-02-23T08:57:12;5.80;99.90
24232;DHT22;12364;47.810;8.810;2024-02-23T08:59:44;5.90;99.90
24232;DHT22;12364;47.810;8.810;2024-02-23T09:02:11;5.80;99.90
24232;DHT22;12364;47.810;8.810;2024-02-23T09:04:38;6.00;99.90
24232;DHT22;12364;47.810;8.810;2024-02-23T09:07:05;6.20;99.90
24232;DHT22;12364;47.810;8.810;2024-02-23T09:09:32;6.30;99.90
24232;DHT22;12364;47.810;8.810;2024-02-23T09:11:59;6.20;99.90
24232;DHT22;12364;47.810;8.810;2024-02-23T09:14:27;6.20;99.90
24232;DHT22;12364;47.810;8.810;2024-02-23T09:16:54;6.20;99.90
24232;DHT22;12364;47.810;8.810;2024-02-23T09:19:21;6.30;99.90
24232;DHT22;12364;47.810;8.810;2024-02-23T09:21:48;6.30;99.90
24232;DHT22;12364;47.810;8.810;2024-02-23T09:24:15;6.50;99.90
24232;DHT22;12364;47.810;8.810;2024-02-23T09:26:42;6.60;99.90
24232;DHT22;12364;47.810;8.810;2024-02-23T09:29:13;6.70;99.90
24232;DHT22;12364;47.810;8.810;2024-02-23T09:31:40;6.70;99.90
24232;DHT22;12364;47.810;8.810;2024-02-23T09:34:07;6.70;99.90
24232;DHT22;12364;47.810;8.810;2024-02-23T09:36:34;6.70;99.90
24232;DHT22;12364;47.810;8.810;2024-02-23T09:39:01;6.80;99.90
24232;DHT22;12364;47.810;8.810;2024-02-23T09:41:30;6.90;99.90
24232;DHT22;12364;47.810;8.810;2024-02-23T09:43:58;6.90;99.90
24232;DHT22;12364;47.810;8.810;2024-02-23T09:46:25;7.00;99.90
24232;DHT22;12364;47.810;8.810;2024-02-23T09:48:52;7.10;99.90
24232;DHT22;12364;47.810;8.810;2024-02-23T09:51:20;7.00;99.90
24232;DHT22;12364;47.810;8.810;2024-02-23T09:53:47;7.00;99.90
24232;DHT22;12364;47.810;8.810;2024-02-23T09:56:16;7.10;99.90
24232;DHT22;12364;47.810;8.810;2024-02-23T09:58:44;7.20;99.90
24232;DHT22;12364;47.810;8.810;2024-02-23T10:01:15;7.20;99.90
24232;DHT22;12364;47.810;8.810;2024-02-23T10:03:43;7.30;99.90
24232;DHT22;12364;47.810;8.810;2024-02-23T10:06:11;7.40;99.90
24232;DHT22;12364;47.810;8.810;2024-02-23T10:08:39;7.30;99.90
24232;DHT22;12364;47.810;8.810;2024-02-23T10:11:06;7.30;99.90
24232;DHT22;12364;47.810;8.810;2024-02-23T10:13:35;7.30;99.90
24232;DHT22;12364;47.810;8.810;2024-02-23T10:16:02;7.40;99.90
24232;DHT22;12364;47.810;8.810;2024-02-23T10:18:41;7.40;99.90
24232;DHT22;12364;47.810;8.810;2024-02-23T10:21:08;7.10;99.90
24232;DHT22;12364;47.810;8.810;2024-02-23T10:23:35;7.20;99.90
24232;DHT22;12364;47.810;8.810;2024-02-23T10:26:05;7.00;99.90
24232;DHT22;12364;47.810;8.810;2024-02-23T10:28:34;7.00;99.90
24232;DHT22;12364;47.810;8.810;2024-02-23T10:31:01;7.00;99.90
24232;DHT22;12364;47.810;8.810;2024-02-23T10:33:29;6.90;99.90
24232;DHT22;12364;47.810;8.810;2024-02-23T10:35:56;7.10;99.90
24232;DHT22;12364;47.810;8.810;2024-02-23T10:38:27;7.20;99.90
24232;DHT22;12364;47.810;8.810;2024-02-23T10:40:55;7.10;99.90
24232;DHT22;12364;47.810;8.810;2024-02-23T10:43:30;7.10;99.90
24232;DHT22;12364;47.810;8.810;2024-02-23T10:45:59;7.20;99.90
24232;DHT22;12364;47.810;8.810;2024-02-23T10:48:29;6.90;99.90
24232;DHT22;12364;47.810;8.810;2024-02-23T10:50:56;6.90;99.90
24232;DHT22;12364;47.810;8.810;2024-02-23T10:53:25;7.00;99.90
24232;DHT22;12364;47.810;8.810;2024-02-23T10:55:56;7.10;99.90
24232;DHT22;12364;47.810;8.810;2024-02-23T10:58:24;7.30;99.90
24232;DHT22;12364;47.810;8.810;2024-02-23T11:00:51;7.30;99.90
24232;DHT22;12364;47.810;8.810;2024-02-23T11:03:18;7.30;99.90
24232;DHT22;12364;47.810;8.810;2024-02-23T11:05:49;7.30;99.90
24232;DHT22;12364;47.810;8.810;2024-02-23T11:08:19;7.50;99.90
24232;DHT22;12364;47.810;8.810;2024-02-23T11:10:49;7.50;99.90
24232;DHT22;12364;47.810;8.810;2024-02-23T11:13:35;7.60;99.90
24232;DHT22;12364;47.810;8.810;2024-02-23T11:16:06;7.60;99.90
24232;DHT22;12364;47.810;8.810;2024-02-23T11:18:34;7.60;99.90
24232;DHT22;12364;47.810;8.810;2024-02-23T11:21:03;7.60;99.90
24232;DHT22;12364;47.810;8.810;2024-02-23T11:23:41;7.70;99.90
24232;DHT22;12364;47.810;8.810;2024-02-23T11:26:10;7.70;99.90
24232;DHT22;12364;47.810;8.810;2024-02-23T11:28:47;8.00;99.90
24232;DHT22;12364;47.810;8.810;2024-02-23T11:31:15;7.90;99.90
24232;DHT22;12364;47.810;8.810;2024-02-23T11:34:16;7.80;99.90
24232;DHT22;12364;47.810;8.810;2024-02-23T11:36:36;7.80;99.90
24232;DHT22;12364;47.810;8.810;2024-02-23T11:39:04;7.70;99.90
24232;DHT22;12364;47.810;8.810;2024-02-23T11:41:32;7.70;99.90
24232;DHT22;12364;47.810;8.810;2024-02-23T11:43:59;7.60;99.90
24232;DHT22;12364;47.810;8.810;2024-02-23T11:46:26;7.80;99.90
24232;DHT22;12364;47.810;8.810;2024-02-23T11:48:53;7.90;99.90
24232;DHT22;12364;47.810;8.810;2024-02-23T11:51:21;8.00;99.90
24232;DHT22;12364;47.810;8.810;2024-02-23T11:53:50;8.00;99.90
24232;DHT22;12364;47.810;8.810;2024-02-23T11:56:18;8.10;99.90
24232;DHT22;12364;47.810;8.810;2024-02-23T11:58:46;8.10;99.90
24232;DHT22;12364;47.810;8.810;2024-02-23T12:01:13;8.20;99.90
24232;DHT22;12364;47.810;8.810;2024-02-23T12:03:40;8.10;99.90
24232;DHT22;12364;47.810;8.810;2024-02-23T12:06:10;8.20;99.90
24232;DHT22;12364;47.810;8.810;2024-02-23T12:08:37;8.20;99.90
24232;DHT22;12364;47.810;8.810;2024-02-23T12:11:05;8.30;99.90
24232;DHT22;12364;47.810;8.810;2024-02-23T12:13:32;8.30;99.90
24232;DHT22;12364;47.810;8.810;2024-02-23T12:15:59;8.20;99.90
24232;DHT22;12364;47.810;8.810;2024-02-23T12:18:27;8.30;99.90
24232;DHT22;12364;47.810;8.810;2024-02-23T12:21:04;8.40;99.90
24232;DHT22;12364;47.810;8.810;2024-02-23T12:23:41;8.40;99.90
24232;DHT22;12364;47.810;8.810;2024-02-23T12:26:09;8.30;99.90
24232;DHT22;12364;47.810;8.810;2024-02-23T12:28:36;8.30;99.90
24232;DHT22;12364;47.810;8.810;2024-02-23T12:31:03;8.20;99.90
24232;DHT22;12364;47.810;8.810;2024-02-23T12:33:35;8.30;99.90
24232;DHT22;12364;47.810;8.810;2024-02-23T12:36:03;8.30;99.90
24232;DHT22;12364;47.810;8.810;2024-02-23T12:38:30;8.30;99.90
24232;DHT22;12364;47.810;8.810;2024-02-23T12:40:58;8.40;99.90
24232;DHT22;12364;47.810;8.810;2024-02-23T12:43:25;8.40;99.90
24232;DHT22;12364;47.810;8.810;2024-02-23T12:45:53;8.40;99.90
24232;DHT22;12364;47.810;8.810;2024-02-23T12:48:21;8.50;99.90
24232;DHT22;12364;47.810;8.810;2024-02-23T12:50:49;8.60;99.90
24232;DHT22;12364;47.810;8.810;2024-02-23T12:53:32;8.50;99.90
24232;DHT22;12364;47.810;8.810;2024-02-23T12:56:01;8.60;99.90
24232;DHT22;12364;47.810;8.810;2024-02-23T12:58:28;8.50;99.90
24232;DHT22;12364;47.810;8.810;2024-02-23T13:00:55;8.50;99.90
24232;DHT22;12364;47.810;8.810;2024-02-23T13:03:23;8.50;99.90
24232;DHT22;12364;47.810;8.810;2024-02-23T13:05:50;8.60;99.90
24232;DHT22;12364;47.810;8.810;2024-02-23T13:08:17;8.60;99.90
24232;DHT22;12364;47.810;8.810;2024-02-23T13:10:44;8.60;99.90
24232;DHT22;12364;47.810;8.810;2024-02-23T13:13:12;8.70;99.90
24232;DHT22;12364;47.810;8.810;2024-02-23T13:15:41;8.70;99.90
24232;DHT22;12364;47.810;8.810;2024-02-23T13:18:08;8.80;99.90
24232;DHT22;12364;47.810;8.810;2024-02-23T13:20:39;8.80;99.90
24232;DHT22;12364;47.810;8.810;2024-02-23T13:23:09;8.80;99.90
24232;DHT22;12364;47.810;8.810;2024-02-23T13:25:36;8.80;99.90
24232;DHT22;12364;47.810;8.810;2024-02-23T13:28:03;8.70;99.90
24232;DHT22;12364;47.810;8.810;2024-02-23T13:30:31;8.80;99.90
24232;DHT22;12364;47.810;8.810;2024-02-23T13:32:59;8.80;99.90
24232;DHT22;12364;47.810;8.810;2024-02-23T13:35:26;8.70;99.90
24232;DHT22;12364;47.810;8.810;2024-02-23T13:37:53;8.70;99.90
24232;DHT22;12364;47.810;8.810;2024-02-23T13:40:20;8.80;99.90
24232;DHT22;12364;47.810;8.810;2024-02-23T13:42:47;8.70;99.90
24232;DHT22;12364;47.810;8.810;2024-02-23T13:45:16;8.80;99.90
24232;DHT22;12364;47.810;8.810;2024-02-23T13:47:54;8.80;99.90
24232;DHT22;12364;47.810;8.810;2024-02-23T13:50:22;8.90;99.90
24232;DHT22;12364;47.810;8.810;2024-02-23T13:52:49;8.90;99.90
24232;DHT22;12364;47.810;8.810;2024-02-23T13:55:16;8.90;99.90
24232;DHT22;12364;47.810;8.810;2024-02-23T13:57:43;8.70;99.90
24232;DHT22;12364;47.810;8.810;2024-02-23T14:00:10;8.80;99.90
24232;DHT22;12364;47.810;8.810;2024-02-23T14:02:39;8.70;99.90
24232;DHT22;12364;47.810;8.810;2024-02-23T14:05:09;8.70;99.90
24232;DHT22;12364;47.810;8.810;2024-02-23T14:07:37;8.60;99.90
24232;DHT22;12364;47.810;8.810;2024-02-23T14:10:04;8.60;99.90
24232;DHT22;12364;47.810;8.810;2024-02-23T14:12:31;8.70;99.90
24232;DHT22;12364;47.810;8.810;2024-02-23T14:14:58;8.70;99.90
24232;DHT22;12364;47.810;8.810;2024-02-23T14:17:25;8.70;99.90
24232;DHT22;12364;47.810;8.810;2024-02-23T14:19:52;8.70;99.90
24232;DHT22;12364;47.810;8.810;2024-02-23T14:22:19;8.80;99.90
24232;DHT22;12364;47.810;8.810;2024-02-23T14:24:46;8.70;99.90
24232;DHT22;12364;47.810;8.810;2024-02-23T14:27:13;8.80;99.90
24232;DHT22;12364;47.810;8.810;2024-02-23T14:29:40;8.60;99.90
24232;DHT22;12364;47.810;8.810;2024-02-23T14:32:08;8.50;99.90
24232;DHT22;12364;47.810;8.810;2024-02-23T14:34:35;8.50;99.90
24232;DHT22;12364;47.810;8.810;2024-02-23T14:37:02;8.50;99.90
24232;DHT22;12364;47.810;8.810;2024-02-23T14:39:29;8.60;99.90
24232;DHT22;12364;47.810;8.810;2024-02-23T14:41:56;8.70;99.90
24232;DHT22;12364;47.810;8.810;2024-02-23T14:44:24;8.70;99.90
24232;DHT22;12364;47.810;8.810;2024-02-23T14:46:52;8.60;99.90
24232;DHT22;12364;47.810;8.810;2024-02-23T14:49:19;8.50;99.90
24232;DHT22;12364;47.810;8.810;2024-02-23T14:51:46;8.40;99.90
24232;DHT22;12364;47.810;8.810;2024-02-23T14:54:15;8.50;99.90
24232;DHT22;12364;47.810;8.810;2024-02-23T14:56:42;8.40;99.90
24232;DHT22;12364;47.810;8.810;2024-02-23T14:59:09;8.30;99.90
24232;DHT22;12364;47.810;8.810;2024-02-23T15:01:39;8.40;99.90
24232;DHT22;12364;47.810;8.810;2024-02-23T15:04:09;8.30;99.90
24232;DHT22;12364;47.810;8.810;2024-02-23T15:06:36;8.50;99.90
24232;DHT22;12364;47.810;8.810;2024-02-23T15:09:04;8.60;99.90
24232;DHT22;12364;47.810;8.810;2024-02-23T15:11:32;8.70;99.90
24232;DHT22;12364;47.810;8.810;2024-02-23T15:13:59;8.70;99.90
24232;DHT22;12364;47.810;8.810;2024-02-23T15:16:27;8.70;99.90
24232;DHT22;12364;47.810;8.810;2024-02-23T15:18:55;8.50;99.90
24232;DHT22;12364;47.810;8.810;2024-02-23T15:21:22;8.50;99.90
24232;DHT22;12364;47.810;8.810;2024-02-23T15:23:49;8.60;99.90
24232;DHT22;12364;47.810;8.810;2024-02-23T15:26:16;8.50;99.90
24232;DHT22;12364;47.810;8.810;2024-02-23T15:28:43;8.60;99.90
24232;DHT22;12364;47.810;8.810;2024-02-23T15:31:14;8.60;99.90
24232;DHT22;12364;47.810;8.810;2024-02-23T15:33:41;8.70;99.90
24232;DHT22;12364;47.810;8.810;2024-02-23T15:36:08;8.70;99.90
24232;DHT22;12364;47.810;8.810;2024-02-23T15:38:35;8.70;99.90
24232;DHT22;12364;47.810;8.810;2024-02-23T15:41:03;8.70;99.90
24232;DHT22;12364;47.810;8.810;2024-02-23T15:43:31;8.70;99.90
24232;DHT22;12364;47.810;8.810;2024-02-23T15:45:59;8.60;99.90
24232;DHT22;12364;47.810;8.810;2024-02-23T15:48:26;8.70;99.90
24232;DHT22;12364;47.810;8.810;2024-02-23T15:50:53;8.70;99.90
24232;DHT22;12364;47.810;8.810;2024-02-23T15:53:40;8.80;99.90
24232;DHT22;12364;47.810;8.810;2024-02-23T15:56:07;8.80;99.90
24232;DHT22;12364;47.810;8.810;2024-02-23T15:58:34;8.70;99.90
24232;DHT22;12364;47.810;8.810;2024-02-23T16:01:01;8.70;99.90
24232;DHT22;12364;47.810;8.810;2024-02-23T16:03:29;8.70;99.90
24232;DHT22;12364;47.810;8.810;2024-02-23T16:05:56;8.80;99.90
24232;DHT22;12364;47.810;8.810;2024-02-23T16:08:37;8.90;99.90
24232;DHT22;12364;47.810;8.810;2024-02-23T16:11:05;8.80;99.90
24232;DHT22;12364;47.810;8.810;2024-02-23T16:13:32;8.80;99.90
24232;DHT22;12364;47.810;8.810;2024-02-23T16:15:59;8.80;99.90
24232;DHT22;12364;47.810;8.810;2024-02-23T16:18:26;8.80;99.90
24232;DHT22;12364;47.810;8.810;2024-02-23T16:20:53;8.80;99.90
24232;DHT22;12364;47.810;8.810;2024-02-23T16:23:21;8.60;99.90
24232;DHT22;12364;47.810;8.810;2024-02-23T16:25:49;8.50;99.90
24232;DHT22;12364;47.810;8.810;2024-02-23T16:28:16;8.60;99.90
24232;DHT22;12364;47.810;8.810;2024-02-23T16:30:43;8.60;99.90
24232;DHT22;12364;47.810;8.810;2024-02-23T16:33:11;8.50;99.90
24232;DHT22;12364;47.810;8.810;2024-02-23T16:35:38;8.70;99.90
24232;DHT22;12364;47.810;8.810;2024-02-23T16:38:05;8.50;99.90
24232;DHT22;12364;47.810;8.810;2024-02-23T16:40:32;8.50;99.90
24232;DHT22;12364;47.810;8.810;2024-02-23T16:42:59;8.50;99.90
24232;DHT22;12364;47.810;8.810;2024-02-23T16:45:27;8.50;99.90
24232;DHT22;12364;47.810;8.810;2024-02-23T16:47:54;8.50;99.90
24232;DHT22;12364;47.810;8.810;2024-02-23T16:50:21;8.50;99.90
24232;DHT22;12364;47.810;8.810;2024-02-23T16:52:48;8.50;99.90
24232;DHT22;12364;47.810;8.810;2024-02-23T16:55:16;8.30;99.90
24232;DHT22;12364;47.810;8.810;2024-02-23T16:57:43;8.20;99.90
24232;DHT22;12364;47.810;8.810;2024-02-23T17:00:10;8.20;99.90
24232;DHT22;12364;47.810;8.810;2024-02-23T17:02:39;8.10;99.90
24232;DHT22;12364;47.810;8.810;2024-02-23T17:05:07;8.10;99.90
24232;DHT22;12364;47.810;8.810;2024-02-23T17:07:35;8.00;99.90
24232;DHT22;12364;47.810;8.810;2024-02-23T17:10:04;7.90;99.90
24232;DHT22;12364;47.810;8.810;2024-02-23T17:12:32;7.90;99.90
24232;DHT22;12364;47.810;8.810;2024-02-23T17:14:59;7.80;99.90
24232;DHT22;12364;47.810;8.810;2024-02-23T17:17:26;7.60;99.90
24232;DHT22;12364;47.810;8.810;2024-02-23T17:19:53;7.60;99.90
24232;DHT22;12364;47.810;8.810;2024-02-23T17:22:20;7.60;99.90
24232;DHT22;12364;47.810;8.810;2024-02-23T17:24:51;7.50;99.90
24232;DHT22;12364;47.810;8.810;2024-02-23T17:27:18;7.90;99.90
24232;DHT22;12364;47.810;8.810;2024-02-23T17:29:45;7.80;99.90
24232;DHT22;12364;47.810;8.810;2024-02-23T17:32:12;8.00;99.90
24232;DHT22;12364;47.810;8.810;2024-02-23T17:34:39;7.80;99.90
24232;DHT22;12364;47.810;8.810;2024-02-23T17:37:06;7.80;99.90
24232;DHT22;12364;47.810;8.810;2024-02-23T17:39:36;7.60;99.90
24232;DHT22;12364;47.810;8.810;2024-02-23T17:42:03;7.60;99.90
24232;DHT22;12364;47.810;8.810;2024-02-23T17:44:30;7.40;99.90
24232;DHT22;12364;47.810;8.810;2024-02-23T17:46:57;7.40;99.90
24232;DHT22;12364;47.810;8.810;2024-02-23T17:49:25;7.20;99.90
24232;DHT22;12364;47.810;8.810;2024-02-23T17:51:52;7.20;99.90
24232;DHT22;12364;47.810;8.810;2024-02-23T17:54:19;7.00;99.90
24232;DHT22;12364;47.810;8.810;2024-02-23T17:56:46;6.90;99.90
24232;DHT22;12364;47.810;8.810;2024-02-23T17:59:13;6.80;99.90
24232;DHT22;12364;47.810;8.810;2024-02-23T18:01:40;6.90;99.90
24232;DHT22;12364;47.810;8.810;2024-02-23T18:04:07;6.60;99.90
24232;DHT22;12364;47.810;8.810;2024-02-23T18:06:38;6.60;99.90
24232;DHT22;12364;47.810;8.810;2024-02-23T18:09:05;6.60;99.90
24232;DHT22;12364;47.810;8.810;2024-02-23T18:11:32;6.80;99.90
24232;DHT22;12364;47.810;8.810;2024-02-23T18:13:59;7.10;99.90
24232;DHT22;12364;47.810;8.810;2024-02-23T18:16:26;7.00;99.90
24232;DHT22;12364;47.810;8.810;2024-02-23T18:18:54;6.90;99.90
24232;DHT22;12364;47.810;8.810;2024-02-23T18:21:23;6.80;99.90
24232;DHT22;12364;47.810;8.810;2024-02-23T18:23:50;6.90;99.90
24232;DHT22;12364;47.810;8.810;2024-02-23T18:26:17;7.00;99.90
24232;DHT22;12364;47.810;8.810;2024-02-23T18:28:44;7.20;99.90
24232;DHT22;12364;47.810;8.810;2024-02-23T18:31:11;7.20;99.90
24232;DHT22;12364;47.810;8.810;2024-02-23T18:33:38;7.20;99.90
24232;DHT22;12364;47.810;8.810;2024-02-23T18:36:05;7.30;99.90
24232;DHT22;12364;47.810;8.810;2024-02-23T18:38:32;7.30;99.90
24232;DHT22;12364;47.810;8.810;2024-02-23T18:41:00;7.30;99.90
24232;DHT22;12364;47.810;8.810;2024-02-23T18:43:29;7.30;99.90
24232;DHT22;12364;47.810;8.810;2024-02-23T18:45:56;7.40;99.90
24232;DHT22;12364;47.810;8.810;2024-02-23T18:48:23;7.40;99.90
24232;DHT22;12364;47.810;8.810;2024-02-23T18:50:51;7.30;99.90
24232;DHT22;12364;47.810;8.810;2024-02-23T18:53:18;7.20;99.90
24232;DHT22;12364;47.810;8.810;2024-02-23T18:55:46;7.20;99.90
24232;DHT22;12364;47.810;8.810;2024-02-23T18:58:13;7.20;99.90
24232;DHT22;12364;47.810;8.810;2024-02-23T19:00:40;7.30;99.90
24232;DHT22;12364;47.810;8.810;2024-02-23T19:03:07;7.30;99.90
24232;DHT22;12364;47.810;8.810;2024-02-23T19:05:34;7.30;99.90
24232;DHT22;12364;47.810;8.810;2024-02-23T19:08:01;7.20;99.90
24232;DHT22;12364;47.810;8.810;2024-02-23T19:10:29;7.20;99.90
24232;DHT22;12364;47.810;8.810;2024-02-23T19:12:56;7.50;99.90
24232;DHT22;12364;47.810;8.810;2024-02-23T19:15:23;7.30;99.90
24232;DHT22;12364;47.810;8.810;2024-02-23T19:17:50;6.80;99.90
24232;DHT22;12364;47.810;8.810;2024-02-23T19:20:17;6.70;99.90
24232;DHT22;12364;47.810;8.810;2024-02-23T19:22:44;6.50;99.90
24232;DHT22;12364;47.810;8.810;2024-02-23T19:25:11;6.50;99.90
24232;DHT22;12364;47.810;8.810;2024-02-23T19:27:40;6.50;99.90
24232;DHT22;12364;47.810;8.810;2024-02-23T19:30:07;6.50;99.90
24232;DHT22;12364;47.810;8.810;2024-02-23T19:32:41;6.50;99.90
24232;DHT22;12364;47.810;8.810;2024-02-23T19:35:08;6.50;99.90
24232;DHT22;12364;47.810;8.810;2024-02-23T19:37:35;6.50;99.90
24232;DHT22;12364;47.810;8.810;2024-02-23T19:40:06;6.50;99.90
24232;DHT22;12364;47.810;8.810;2024-02-23T19:42:34;6.50;99.90
24232;DHT22;12364;47.810;8.810;2024-02-23T19:45:02;6.50;99.90
24232;DHT22;12364;47.810;8.810;2024-02-23T19:47:31;6.40;99.90
24232;DHT22;12364;47.810;8.810;2024-02-23T19:49:59;6.50;99.90
24232;DHT22;12364;47.810;8.810;2024-02-23T19:52:28;6.30;99.90
24232;DHT22;12364;47.810;8.810;2024-02-23T19:54:55;6.20;99.90
24232;DHT22;12364;47.810;8.810;2024-02-23T19:57:22;5.90;99.90
24232;DHT22;12364;47.810;8.810;2024-02-23T19:59:53;5.50;99.90
24232;DHT22;12364;47.810;8.810;2024-02-23T20:02:21;5.30;99.90
24232;DHT22;12364;47.810;8.810;2024-02-23T20:04:48;5.10;99.90
24232;DHT22;12364;47.810;8.810;2024-02-23T20:07:20;5.40;99.90
24232;DHT22;12364;47.810;8.810;2024-02-23T20:09:48;5.60;99.90
24232;DHT22;12364;47.810;8.810;2024-02-23T20:12:15;5.90;99.90
24232;DHT22;12364;47.810;8.810;2024-02-23T20:14:42;6.30;99.90
24232;DHT22;12364;47.810;8.810;2024-02-23T20:17:10;6.40;99.90
24232;DHT22;12364;47.810;8.810;2024-02-23T20:19:37;6.30;99.90
24232;DHT22;12364;47.810;8.810;2024-02-23T20:22:04;5.90;99.90
24232;DHT22;12364;47.810;8.810;2024-02-23T20:24:31;5.70;99.90
24232;DHT22;12364;47.810;8.810;2024-02-23T20:26:58;5.90;99.90
24232;DHT22;12364;47.810;8.810;2024-02-23T20:29:28;5.70;99.90
24232;DHT22;12364;47.810;8.810;2024-02-23T20:32:02;5.60;99.90
24232;DHT22;12364;47.810;8.810;2024-02-23T20:34:41;5.50;99.90